createdAt,value
2022-11-15T00:00:31.125Z,0
2022-11-15T00:01:31.603Z,0
2022-11-15T00:02:32.171Z,0
2022-11-15T00:03:32.714Z,0
2022-11-15T00:04:32.519Z,0
2022-11-15T00:05:33.428Z,0
2022-11-15T00:06:34.337Z,0
2022-11-15T00:08:10.005Z,0
2022-11-15T00:08:36.273Z,0
2022-11-15T00:09:36.200Z,0
2022-11-15T00:10:36.819Z,0
2022-11-15T00:11:37.148Z,0
2022-11-15T00:12:38.062Z,0
2022-11-15T00:13:38.691Z,0
2022-11-15T00:14:38.898Z,0
2022-11-15T00:15:39.111Z,0
2022-11-15T00:16:39.587Z,0
2022-11-15T00:17:39.798Z,0
2022-11-15T00:18:40.424Z,0
2022-11-15T00:19:41.318Z,0
2022-11-15T00:20:42.510Z,0
2022-11-15T00:21:42.708Z,0
2022-11-15T00:22:42.605Z,0
2022-11-15T00:23:44.963Z,0
2022-11-15T00:24:44.164Z,0
2022-11-15T00:25:44.360Z,0
2022-11-15T00:26:43.952Z,0
2022-11-15T00:27:44.850Z,0
2022-11-15T00:28:46.039Z,0
2022-11-15T00:29:45.945Z,0
2022-11-15T00:30:47.458Z,0
2022-11-15T00:31:47.335Z,0
2022-11-15T00:32:47.942Z,0
2022-11-15T00:33:49.249Z,0
2022-11-15T00:34:49.729Z,0
2022-11-15T00:35:49.620Z,0
2022-11-15T00:36:51.211Z,0
2022-11-15T00:37:51.116Z,0
2022-11-15T00:38:52.347Z,0
2022-11-15T00:39:52.678Z,0
2022-11-15T00:40:52.587Z,0
2022-11-15T00:41:53.772Z,0
2022-11-15T00:42:54.406Z,0
2022-11-15T00:43:54.513Z,0
2022-11-15T00:44:56.439Z,0
2022-11-15T00:45:56.075Z,0
2022-11-15T00:46:56.676Z,0
2022-11-15T00:47:57.878Z,0
2022-11-15T00:48:58.377Z,0
2022-11-15T00:49:58.568Z,0
2022-11-15T00:50:58.476Z,0
2022-11-15T00:51:59.394Z,0
2022-11-15T00:52:59.282Z,0
2022-11-15T00:54:00.417Z,0
2022-11-15T00:55:01.640Z,0
2022-11-15T00:56:01.825Z,0
2022-11-15T00:57:01.156Z,0
2022-11-15T00:58:03.072Z,0
2022-11-15T00:59:02.390Z,0
2022-11-15T01:00:04.016Z,0
2022-11-15T01:01:05.141Z,0
2022-11-15T01:02:04.779Z,0
2022-11-15T01:03:06.283Z,0
2022-11-15T01:04:12.447Z,0
2022-11-15T01:05:06.939Z,0
2022-11-15T01:06:07.432Z,0
2022-11-15T01:07:07.996Z,0
2022-11-15T01:08:07.621Z,0
2022-11-15T01:09:08.866Z,0
2022-11-15T01:10:08.499Z,0
2022-11-15T01:11:09.704Z,0
2022-11-15T01:12:10.617Z,0
2022-11-15T01:13:11.830Z,0
2022-11-15T01:14:11.851Z,0
2022-11-15T01:15:11.468Z,0
2022-11-15T01:16:12.979Z,0
2022-11-15T01:17:13.161Z,0
2022-11-15T01:18:14.099Z,0
2022-11-15T01:19:14.280Z,0
2022-11-15T01:20:15.493Z,0
2022-11-15T01:21:15.130Z,0
2022-11-15T01:22:16.083Z,0
2022-11-15T01:23:17.015Z,0
2022-11-15T01:24:18.063Z,0
2022-11-15T01:25:18.567Z,0
2022-11-15T01:26:18.185Z,0
2022-11-15T01:27:19.073Z,0
2022-11-15T01:28:19.395Z,0
2022-11-15T01:29:20.885Z,0
2022-11-15T01:30:20.233Z,0
2022-11-15T01:31:21.188Z,0
2022-11-15T01:32:21.097Z,0
2022-11-15T01:33:22.320Z,0
2022-11-15T01:34:22.601Z,0
2022-11-15T01:35:23.827Z,0
2022-11-15T01:36:23.759Z,0
2022-11-15T01:37:23.645Z,0
2022-11-15T01:38:24.828Z,0
2022-11-15T01:39:25.040Z,0
2022-11-15T01:40:26.065Z,0
2022-11-15T01:41:26.259Z,0
2022-11-15T01:42:26.893Z,0
2022-11-15T01:43:27.576Z,0
2022-11-15T01:44:28.650Z,0
2022-11-15T01:45:28.269Z,0
2022-11-15T01:46:29.499Z,0
2022-11-15T01:47:29.706Z,0
2022-11-15T01:48:30.212Z,0
2022-11-15T01:49:30.405Z,0
2022-11-15T01:50:30.024Z,0
2022-11-15T01:51:31.206Z,0
2022-11-15T01:52:31.747Z,0
2022-11-15T01:53:32.032Z,0
2022-11-15T01:54:31.960Z,0
2022-11-15T01:55:32.888Z,0
2022-11-15T01:56:33.203Z,0
2022-11-15T01:57:34.686Z,0
2022-11-15T01:58:34.582Z,0
2022-11-15T01:59:35.497Z,0
2022-11-15T02:00:36.517Z,0
2022-11-15T02:01:37.720Z,0
2022-11-15T02:02:37.608Z,0
2022-11-15T02:03:38.922Z,0
2022-11-15T02:04:39.478Z,0
2022-11-15T02:05:39.671Z,0
2022-11-15T02:06:39.871Z,0
2022-11-15T02:07:40.416Z,0
2022-11-15T02:08:40.323Z,0
2022-11-15T02:09:40.568Z,0
2022-11-15T02:10:40.795Z,0
2022-11-15T02:11:40.990Z,0
2022-11-15T02:12:43.695Z,0
2022-11-15T02:13:43.539Z,0
2022-11-15T02:14:43.264Z,0
2022-11-15T02:15:43.851Z,0
2022-11-15T02:16:44.791Z,0
2022-11-15T02:17:44.393Z,0
2022-11-15T02:18:45.623Z,0
2022-11-15T02:19:45.538Z,0
2022-11-15T02:20:46.141Z,0
2022-11-15T02:21:47.079Z,0
2022-11-15T02:22:47.703Z,0
2022-11-15T02:23:48.810Z,0
2022-11-15T02:24:49.119Z,0
2022-11-15T02:25:48.760Z,0
2022-11-15T02:26:49.387Z,0
2022-11-15T02:27:50.872Z,0
2022-11-15T02:28:51.350Z,0
2022-11-15T02:29:51.549Z,0
2022-11-15T02:30:52.758Z,0
2022-11-15T02:31:52.668Z,0
2022-11-15T02:32:54.139Z,0
2022-11-15T02:33:54.079Z,0
2022-11-15T02:34:54.798Z,0
2022-11-15T02:35:56.004Z,0
2022-11-15T02:36:55.914Z,0
2022-11-15T02:37:56.249Z,0
2022-11-15T02:38:57.458Z,0
2022-11-15T02:39:58.693Z,0
2022-11-15T02:40:58.717Z,0
2022-11-15T02:41:59.630Z,0
2022-11-15T02:43:02.099Z,0
2022-11-15T02:44:00.831Z,0
2022-11-15T02:45:01.262Z,0
2022-11-15T02:46:02.165Z,0
2022-11-15T02:47:03.101Z,0
2022-11-15T02:48:04.283Z,0
2022-11-15T02:49:04.488Z,0
2022-11-15T02:50:04.971Z,0
2022-11-15T02:51:04.884Z,0
2022-11-15T02:52:05.480Z,0
2022-11-15T02:53:06.687Z,0
2022-11-15T02:54:07.304Z,0
2022-11-15T02:55:08.657Z,0
2022-11-15T02:56:09.612Z,0
2022-11-15T02:57:09.802Z,0
2022-11-15T02:58:09.701Z,0
2022-11-15T02:59:10.317Z,0
2022-11-15T03:00:11.229Z,0
2022-11-15T03:01:10.941Z,0
2022-11-15T03:02:11.628Z,0
2022-11-15T03:03:12.510Z,0
2022-11-15T03:04:13.165Z,0
2022-11-15T03:05:13.872Z,0
2022-11-15T03:06:14.511Z,0
2022-11-15T03:07:16.145Z,0
2022-11-15T03:08:19.125Z,0
2022-11-15T03:09:17.032Z,0
2022-11-15T03:10:17.246Z,0
2022-11-15T03:11:17.900Z,0
2022-11-15T03:12:18.786Z,0
2022-11-15T03:13:19.721Z,0
2022-11-15T03:14:19.629Z,0
2022-11-15T03:15:20.624Z,0
2022-11-15T03:16:21.555Z,0
2022-11-15T03:17:22.481Z,0
2022-11-15T03:18:23.083Z,0
2022-11-15T03:19:23.690Z,0
2022-11-15T03:20:24.909Z,0
2022-11-15T03:21:24.630Z,0
2022-11-15T03:22:25.545Z,0
2022-11-15T03:23:25.144Z,0
2022-11-15T03:24:31.475Z,0
2022-11-15T03:25:26.515Z,0
2022-11-15T03:26:26.146Z,0
2022-11-15T03:27:27.333Z,0
2022-11-15T03:28:28.247Z,0
2022-11-15T03:29:28.427Z,0
2022-11-15T03:30:28.741Z,0
2022-11-15T03:31:29.653Z,0
2022-11-15T03:32:30.863Z,0
2022-11-15T03:33:30.971Z,0
2022-11-15T03:34:31.347Z,0
2022-11-15T03:35:31.356Z,0
2022-11-15T03:36:31.689Z,0
2022-11-15T03:37:32.321Z,0
2022-11-15T03:38:33.676Z,0
2022-11-15T03:39:36.774Z,0
2022-11-15T03:40:34.731Z,0
2022-11-15T03:41:35.525Z,0
2022-11-15T03:42:36.151Z,0
2022-11-15T03:43:37.309Z,0
2022-11-15T03:44:37.938Z,0
2022-11-15T03:45:38.326Z,0
2022-11-15T03:46:40.532Z,0
2022-11-15T03:47:40.177Z,0
2022-11-15T03:48:41.353Z,0
2022-11-15T03:49:42.273Z,0
2022-11-15T03:50:42.758Z,0
2022-11-15T03:51:42.688Z,0
2022-11-15T03:52:43.322Z,0
2022-11-15T03:53:45.300Z,0
2022-11-15T03:54:45.205Z,0
2022-11-15T03:55:46.538Z,0
2022-11-15T03:56:47.467Z,0
2022-11-15T03:57:48.102Z,0
2022-11-15T03:58:49.008Z,0
2022-11-15T03:59:48.652Z,0
2022-11-15T04:00:48.844Z,0
2022-11-15T04:01:50.378Z,0
2022-11-15T04:02:49.723Z,0
2022-11-15T04:03:50.793Z,0
2022-11-15T04:04:52.290Z,0
2022-11-15T04:05:51.975Z,0
2022-11-15T04:06:53.028Z,0
2022-11-15T04:07:55.438Z,0
2022-11-15T04:08:54.631Z,0
2022-11-15T04:09:55.540Z,0
2022-11-15T04:10:56.853Z,0
2022-11-15T04:11:57.110Z,0
2022-11-15T04:12:57.007Z,0
2022-11-15T04:13:57.924Z,0
2022-11-15T04:14:58.875Z,0
2022-11-15T04:15:59.880Z,0
2022-11-15T04:17:00.244Z,0
2022-11-15T04:18:00.172Z,0
2022-11-15T04:19:01.355Z,0
2022-11-15T04:20:01.556Z,0
2022-11-15T04:21:01.769Z,0
2022-11-15T04:22:01.973Z,0
2022-11-15T04:23:02.881Z,0
2022-11-15T04:24:03.061Z,0
2022-11-15T04:25:03.966Z,0
2022-11-15T04:26:04.271Z,0
2022-11-15T04:27:04.835Z,0
2022-11-15T04:28:05.018Z,0
2022-11-15T04:29:04.931Z,0
2022-11-15T04:30:05.360Z,0
2022-11-15T04:31:05.690Z,0
2022-11-15T04:32:06.317Z,0
2022-11-15T04:33:07.565Z,0
2022-11-15T04:34:07.463Z,0
2022-11-15T04:35:08.391Z,0
2022-11-15T04:36:08.096Z,0
2022-11-15T04:37:09.573Z,0
2022-11-15T04:38:09.493Z,0
2022-11-15T04:39:09.812Z,0
2022-11-15T04:40:10.725Z,0
2022-11-15T04:41:12.236Z,0
2022-11-15T04:42:12.540Z,0
2022-11-15T04:43:19.825Z,0
2022-11-15T04:44:12.749Z,0
2022-11-15T04:45:13.647Z,0
2022-11-15T04:46:14.037Z,0
2022-11-15T04:47:15.260Z,0
2022-11-15T04:48:15.484Z,0
2022-11-15T04:49:16.209Z,0
2022-11-15T04:50:16.413Z,0
2022-11-15T04:51:16.301Z,0
2022-11-15T04:52:17.217Z,0
2022-11-15T04:53:18.126Z,0
2022-11-15T04:54:19.023Z,0
2022-11-15T04:55:24.741Z,0
2022-11-15T04:56:21.101Z,0
2022-11-15T04:57:21.049Z,0
2022-11-15T04:58:21.991Z,0
2022-11-15T04:59:22.622Z,0
2022-11-15T05:00:23.539Z,0
2022-11-15T05:01:24.418Z,0
2022-11-15T05:02:25.407Z,0
2022-11-15T05:03:25.767Z,0
2022-11-15T05:04:26.694Z,0
2022-11-15T05:05:27.369Z,0
2022-11-15T05:06:27.792Z,0
2022-11-15T05:07:29.620Z,0
2022-11-15T05:08:29.517Z,0
2022-11-15T05:09:29.926Z,0
2022-11-15T05:10:30.252Z,0
2022-11-15T05:11:31.483Z,0
2022-11-15T05:12:31.682Z,0
2022-11-15T05:13:31.532Z,0
2022-11-15T05:14:31.996Z,0
2022-11-15T05:15:32.908Z,0
2022-11-15T05:16:33.931Z,0
2022-11-15T05:17:34.564Z,0
2022-11-15T05:18:39.554Z,0
2022-11-15T05:19:36.737Z,0
2022-11-15T05:20:37.954Z,0
2022-11-15T05:21:37.569Z,0
2022-11-15T05:22:38.755Z,0
2022-11-15T05:23:39.294Z,0
2022-11-15T05:24:39.480Z,0
2022-11-15T05:25:40.121Z,0
2022-11-15T05:26:41.181Z,0
2022-11-15T05:27:41.106Z,0
2022-11-15T05:28:42.315Z,0
2022-11-15T05:29:41.907Z,0
2022-11-15T05:30:43.105Z,0
2022-11-15T05:31:43.303Z,0
2022-11-15T05:32:43.197Z,0
2022-11-15T05:33:45.269Z,0
2022-11-15T05:34:45.441Z,0
2022-11-15T05:35:46.084Z,0
2022-11-15T05:36:47.387Z,0
2022-11-15T05:37:47.726Z,0
2022-11-15T05:38:48.652Z,0
2022-11-15T05:39:49.562Z,0
2022-11-15T05:40:50.175Z,0
2022-11-15T05:41:51.412Z,0
2022-11-15T05:42:51.737Z,0
2022-11-15T05:43:51.651Z,0
2022-11-15T05:44:52.840Z,0
2022-11-15T05:45:52.152Z,0
2022-11-15T05:46:53.129Z,0
2022-11-15T05:47:53.760Z,0
2022-11-15T05:48:54.697Z,0
2022-11-15T05:49:54.877Z,0
2022-11-15T05:50:55.082Z,0
2022-11-15T05:51:55.997Z,0
2022-11-15T05:52:59.710Z,0
2022-11-15T05:53:56.367Z,0
2022-11-15T05:54:57.286Z,0
2022-11-15T05:55:57.479Z,0
2022-11-15T05:56:58.189Z,0
2022-11-15T05:57:58.123Z,0
2022-11-15T05:59:04.500Z,0
2022-11-15T05:59:59.687Z,0
2022-11-15T06:01:00.892Z,0
2022-11-15T06:02:01.414Z,0
2022-11-15T06:03:01.627Z,0
2022-11-15T06:04:01.290Z,0
2022-11-15T06:05:02.485Z,0
2022-11-15T06:06:03.413Z,0
2022-11-15T06:07:04.464Z,0
2022-11-15T06:08:04.428Z,0
2022-11-15T06:09:05.652Z,0
2022-11-15T06:10:05.561Z,0
2022-11-15T06:11:06.789Z,0
2022-11-15T06:12:07.024Z,0
2022-11-15T06:13:07.946Z,0
2022-11-15T06:14:08.286Z,0
2022-11-15T06:15:09.227Z,0
2022-11-15T06:16:09.839Z,0
2022-11-15T06:17:16.340Z,0
2022-11-15T06:18:10.956Z,0
2022-11-15T06:19:12.171Z,0
2022-11-15T06:20:12.642Z,0
2022-11-15T06:21:12.268Z,0
2022-11-15T06:22:13.485Z,0
2022-11-15T06:23:13.120Z,5.63
2022-11-15T06:24:14.308Z,5.63
2022-11-15T06:25:18.833Z,5.63
2022-11-15T06:26:14.181Z,5.63
2022-11-15T06:27:14.929Z,5.63
2022-11-15T06:28:15.270Z,5.63
2022-11-15T06:29:16.455Z,5.63
2022-11-15T06:30:17.123Z,5.63
2022-11-15T06:31:18.053Z,5.63
2022-11-15T06:32:19.267Z,5.63
2022-11-15T06:33:19.757Z,5.63
2022-11-15T06:34:20.087Z,11.25
2022-11-15T06:35:20.002Z,11.25
2022-11-15T06:36:28.751Z,11.25
2022-11-15T06:37:21.479Z,11.25
2022-11-15T06:38:21.826Z,11.25
2022-11-15T06:39:22.743Z,11.25
2022-11-15T06:40:23.364Z,11.25
2022-11-15T06:41:24.001Z,11.25
2022-11-15T06:42:25.232Z,11.25
2022-11-15T06:43:25.158Z,22.5
2022-11-15T06:44:26.369Z,45
2022-11-15T06:45:26.282Z,61.88
2022-11-15T06:46:27.204Z,56.25
2022-11-15T06:47:28.183Z,39.38
2022-11-15T06:48:28.819Z,33.75
2022-11-15T06:49:29.756Z,28.13
2022-11-15T06:50:29.633Z,22.5
2022-11-15T06:51:30.848Z,22.5
2022-11-15T06:52:32.067Z,22.5
2022-11-15T06:53:32.344Z,22.5
2022-11-15T06:54:32.484Z,22.5
2022-11-15T06:55:32.676Z,22.5
2022-11-15T06:56:32.275Z,28.13
2022-11-15T06:57:33.523Z,33.75
2022-11-15T06:58:33.455Z,45
2022-11-15T06:59:39.257Z,45
2022-11-15T07:00:35.608Z,33.75
2022-11-15T07:01:36.400Z,28.13
2022-11-15T07:02:36.926Z,33.75
2022-11-15T07:03:37.210Z,33.75
2022-11-15T07:04:37.446Z,39.38
2022-11-15T07:05:37.926Z,39.38
2022-11-15T07:06:37.533Z,39.38
2022-11-15T07:07:39.293Z,39.38
2022-11-15T07:08:38.933Z,129.38
2022-11-15T07:09:39.581Z,275.63
2022-11-15T07:10:41.074Z,500.63
2022-11-15T07:11:40.988Z,652.5
2022-11-15T07:12:41.231Z,675
2022-11-15T07:13:42.507Z,725.63
2022-11-15T07:14:42.133Z,388.13
2022-11-15T07:15:42.775Z,315
2022-11-15T07:16:43.973Z,551.25
2022-11-15T07:17:44.297Z,720
2022-11-15T07:18:44.212Z,815.63
2022-11-15T07:19:44.590Z,945
2022-11-15T07:20:45.617Z,646.88
2022-11-15T07:21:47.444Z,556.88
2022-11-15T07:22:46.971Z,680.63
2022-11-15T07:23:47.830Z,472.5
2022-11-15T07:24:48.292Z,281.25
2022-11-15T07:25:49.450Z,343.13
2022-11-15T07:26:49.361Z,393.75
2022-11-15T07:27:50.005Z,331.88
2022-11-15T07:28:51.139Z,315
2022-11-15T07:29:50.773Z,157.5
2022-11-15T07:30:56.282Z,270
2022-11-15T07:31:51.929Z,753.75
2022-11-15T07:32:52.853Z,787.5
2022-11-15T07:33:54.085Z,365.63
2022-11-15T07:34:54.309Z,185.63
2022-11-15T07:35:54.226Z,157.5
2022-11-15T07:36:55.433Z,129.38
2022-11-15T07:37:55.887Z,135
2022-11-15T07:38:59.430Z,275.63
2022-11-15T07:39:57.623Z,337.5
2022-11-15T07:40:57.526Z,331.88
2022-11-15T07:41:58.428Z,371.25
2022-11-15T07:42:59.413Z,309.38
2022-11-15T07:44:00.483Z,286.88
2022-11-15T07:45:01.110Z,360
2022-11-15T07:46:10.675Z,556.88
2022-11-15T07:47:02.669Z,821.25
2022-11-15T07:48:03.663Z,1023.75
2022-11-15T07:49:04.155Z,961.88
2022-11-15T07:50:03.803Z,534.38
2022-11-15T07:51:07.679Z,270
2022-11-15T07:52:04.873Z,230.63
2022-11-15T07:53:06.351Z,230.63
2022-11-15T07:54:06.716Z,315
2022-11-15T07:55:06.926Z,343.13
2022-11-15T07:56:07.158Z,315
2022-11-15T07:57:12.895Z,303.75
2022-11-15T07:58:08.745Z,343.13
2022-11-15T07:59:08.975Z,331.88
2022-11-15T08:00:09.247Z,208.13
2022-11-15T08:01:10.437Z,95.63
2022-11-15T08:02:10.529Z,90
2022-11-15T08:03:10.308Z,90
2022-11-15T08:04:10.294Z,84.38
2022-11-15T08:05:10.538Z,84.38
2022-11-15T08:06:10.215Z,84.38
2022-11-15T08:07:11.861Z,101.25
2022-11-15T08:08:12.513Z,168.75
2022-11-15T08:09:12.717Z,191.25
2022-11-15T08:10:12.642Z,180
2022-11-15T08:11:13.555Z,168.75
2022-11-15T08:12:14.208Z,180
2022-11-15T08:13:15.876Z,157.5
2022-11-15T08:14:16.185Z,168.75
2022-11-15T08:15:16.383Z,185.63
2022-11-15T08:16:17.709Z,129.38
2022-11-15T08:17:17.915Z,112.5
2022-11-15T08:18:18.006Z,112.5
2022-11-15T08:19:17.669Z,135
2022-11-15T08:20:18.331Z,174.38
2022-11-15T08:21:23.647Z,168.75
2022-11-15T08:22:19.578Z,95.63
2022-11-15T08:23:20.796Z,95.63
2022-11-15T08:24:20.700Z,95.63
2022-11-15T08:25:21.920Z,78.75
2022-11-15T08:26:21.831Z,78.75
2022-11-15T08:27:23.435Z,78.75
2022-11-15T08:28:23.226Z,78.75
2022-11-15T08:29:23.741Z,78.75
2022-11-15T08:30:23.637Z,78.75
2022-11-15T08:31:24.569Z,78.75
2022-11-15T08:32:24.780Z,78.75
2022-11-15T08:33:24.688Z,78.75
2022-11-15T08:34:25.906Z,95.63
2022-11-15T08:35:31.766Z,140.63
2022-11-15T08:36:28.776Z,180
2022-11-15T08:37:27.518Z,292.5
2022-11-15T08:38:28.198Z,337.5
2022-11-15T08:39:28.449Z,281.25
2022-11-15T08:40:29.468Z,303.75
2022-11-15T08:41:29.990Z,298.13
2022-11-15T08:42:36.156Z,146.25
2022-11-15T08:43:31.499Z,135
2022-11-15T08:44:31.706Z,123.75
2022-11-15T08:45:33.204Z,123.75
2022-11-15T08:46:33.142Z,118.13
2022-11-15T08:47:34.677Z,106.88
2022-11-15T08:48:35.587Z,95.63
2022-11-15T08:49:35.626Z,101.25
2022-11-15T08:50:36.226Z,146.25
2022-11-15T08:51:35.668Z,241.88
2022-11-15T08:52:36.912Z,264.38
2022-11-15T08:53:37.151Z,241.88
2022-11-15T08:54:38.096Z,146.25
2022-11-15T08:55:41.374Z,253.13
2022-11-15T08:56:39.612Z,427.5
2022-11-15T08:57:39.530Z,343.13
2022-11-15T08:58:41.980Z,270
2022-11-15T08:59:40.926Z,450
2022-11-15T09:00:41.349Z,253.13
2022-11-15T09:01:43.190Z,101.25
2022-11-15T09:02:43.275Z,405
2022-11-15T09:03:43.505Z,410.63
2022-11-15T09:04:44.164Z,157.5
2022-11-15T09:05:44.862Z,163.13
2022-11-15T09:06:51.822Z,225
2022-11-15T09:07:47.157Z,309.38
2022-11-15T09:09:06.380Z,281.25
2022-11-15T09:10:06.344Z,320.63
2022-11-15T09:11:07.538Z,624.38
2022-11-15T09:15:11.324Z,545.63
2022-11-15T09:16:11.072Z,528.75
2022-11-15T09:17:12.534Z,326.25
2022-11-15T09:18:12.163Z,354.38
2022-11-15T09:19:17.311Z,624.38
2022-11-15T09:20:13.812Z,360
2022-11-15T09:21:14.080Z,151.88
2022-11-15T09:22:13.705Z,264.38
2022-11-15T09:23:15.229Z,399.38
2022-11-15T09:24:14.866Z,450
2022-11-15T09:25:21.834Z,523.13
2022-11-15T09:26:16.304Z,590.63
2022-11-15T09:27:17.509Z,556.88
2022-11-15T09:28:18.556Z,748.13
2022-11-15T09:29:19.850Z,866.25
2022-11-15T09:30:20.157Z,562.5
2022-11-15T09:31:26.463Z,573.75
2022-11-15T09:32:20.374Z,1006.88
2022-11-15T09:33:21.867Z,1063.13
2022-11-15T09:34:21.800Z,500.63
2022-11-15T09:35:23.020Z,438.75
2022-11-15T09:36:23.393Z,748.13
2022-11-15T09:37:23.346Z,984.38
2022-11-15T09:38:24.306Z,1260
2022-11-15T09:39:25.118Z,1243.13
2022-11-15T09:40:25.422Z,1248.75
2022-11-15T09:41:25.918Z,1001.25
2022-11-15T09:42:25.866Z,601.88
2022-11-15T09:43:27.090Z,455.63
2022-11-15T09:44:36.350Z,556.88
2022-11-15T09:45:27.905Z,534.38
2022-11-15T09:46:27.612Z,540
2022-11-15T09:47:29.147Z,483.75
2022-11-15T09:48:29.640Z,427.5
2022-11-15T09:49:29.749Z,337.5
2022-11-15T09:50:30.956Z,703.13
2022-11-15T09:51:31.955Z,928.13
2022-11-15T09:52:32.455Z,984.38
2022-11-15T09:55:05.049Z,675
2022-11-15T09:55:22.355Z,596.25
2022-11-15T09:56:22.690Z,427.5
2022-11-15T09:57:27.378Z,495
2022-11-15T09:58:23.580Z,579.38
2022-11-15T09:59:22.921Z,624.38
2022-11-15T10:01:01.519Z,562.5
2022-11-15T10:01:25.628Z,663.75
2022-11-15T10:02:25.565Z,939.38
2022-11-15T10:03:26.951Z,1153.13
2022-11-15T10:04:29.393Z,1383.75
2022-11-15T10:05:27.607Z,1282.5
2022-11-15T10:06:28.135Z,1428.75
2022-11-15T10:07:28.455Z,1715.63
2022-11-15T10:08:28.852Z,1800
2022-11-15T10:09:35.079Z,1625.63
2022-11-15T10:10:30.126Z,1569.38
2022-11-15T10:12:00.032Z,1788.75
2022-11-15T10:12:31.281Z,1788.75
2022-11-15T10:13:32.237Z,1873.13
2022-11-15T10:14:32.454Z,1912.5
2022-11-15T10:15:32.965Z,1884.38
2022-11-15T10:16:33.566Z,1856.25
2022-11-15T10:17:33.974Z,1800
2022-11-15T10:18:34.446Z,1805.63
2022-11-15T10:19:34.538Z,1715.63
2022-11-15T10:20:35.250Z,1676.25
2022-11-15T10:21:35.181Z,1625.63
2022-11-15T10:22:36.461Z,1580.63
2022-11-15T10:23:36.090Z,1462.5
2022-11-15T10:24:37.063Z,1355.63
2022-11-15T10:25:38.020Z,1518.75
2022-11-15T10:26:39.442Z,1513.13
2022-11-15T10:27:39.449Z,1428.75
2022-11-15T10:28:40.259Z,1575
2022-11-15T10:29:43.792Z,1614.38
2022-11-15T10:30:40.146Z,1535.63
2022-11-15T10:31:42.246Z,1271.25
2022-11-15T10:32:42.772Z,1243.13
2022-11-15T10:33:43.321Z,1372.5
2022-11-15T10:34:43.536Z,1305
2022-11-15T10:35:43.524Z,1147.5
2022-11-15T10:36:49.084Z,1001.25
2022-11-15T10:37:45.294Z,770.63
2022-11-15T10:38:47.005Z,703.13
2022-11-15T10:39:47.539Z,675
2022-11-15T10:40:47.520Z,680.63
2022-11-15T10:41:48.821Z,635.63
2022-11-15T10:42:49.410Z,849.38
2022-11-15T10:43:49.942Z,973.13
2022-11-15T10:44:50.167Z,1125
2022-11-15T10:45:50.010Z,1203.75
2022-11-15T10:47:05.798Z,675
2022-11-15T10:47:57.294Z,562.5
2022-11-15T10:48:57.802Z,765
2022-11-15T10:49:57.903Z,950.63
2022-11-15T10:50:58.896Z,1113.75
2022-11-15T10:51:58.884Z,1254.38
2022-11-15T10:53:00.413Z,1333.13
2022-11-15T10:54:00.630Z,1293.75
2022-11-15T10:55:00.576Z,1119.38
2022-11-15T10:56:01.537Z,1136.25
2022-11-15T10:57:02.190Z,1096.88
2022-11-15T10:58:02.348Z,748.13
2022-11-15T10:59:03.032Z,511.88
2022-11-15T11:00:04.273Z,635.63
2022-11-15T11:01:05.476Z,821.25
2022-11-15T11:02:06.075Z,883.13
2022-11-15T11:03:06.667Z,804.38
2022-11-15T11:04:06.315Z,860.63
2022-11-15T11:05:07.328Z,1006.88
2022-11-15T11:06:08.032Z,1164.38
2022-11-15T11:07:09.599Z,928.13
2022-11-15T11:08:09.635Z,579.38
2022-11-15T11:09:10.583Z,1130.63
2022-11-15T11:10:50.764Z,1479.38
2022-11-15T11:11:18.739Z,1445.63
2022-11-15T11:12:12.687Z,1451.25
2022-11-15T11:13:13.625Z,1158.75
2022-11-15T11:14:13.864Z,421.88
2022-11-15T11:15:14.516Z,270
2022-11-15T11:16:15.479Z,759.38
2022-11-15T11:17:15.754Z,1096.88
2022-11-15T11:18:16.750Z,703.13
2022-11-15T11:19:16.960Z,219.38
2022-11-15T11:20:17.470Z,208.13
2022-11-15T11:21:17.770Z,337.5
2022-11-15T11:22:17.819Z,292.5
2022-11-15T11:23:19.082Z,618.75
2022-11-15T11:24:19.332Z,843.75
2022-11-15T11:25:19.584Z,843.75
2022-11-15T11:26:20.845Z,562.5
2022-11-15T11:27:20.523Z,219.38
2022-11-15T11:28:21.062Z,286.88
2022-11-15T11:29:22.319Z,461.25
2022-11-15T11:30:22.540Z,630
2022-11-15T11:31:23.521Z,855
2022-11-15T11:32:24.484Z,916.88
2022-11-15T11:33:25.033Z,945
2022-11-15T11:34:24.969Z,945
2022-11-15T11:35:26.180Z,967.5
2022-11-15T11:36:25.913Z,1074.38
2022-11-15T11:37:26.881Z,928.13
2022-11-15T11:38:27.671Z,624.38
2022-11-15T11:39:27.924Z,450
2022-11-15T11:40:28.131Z,646.88
2022-11-15T11:41:28.341Z,731.25
2022-11-15T11:42:27.974Z,607.5
2022-11-15T11:43:28.899Z,506.25
2022-11-15T11:44:29.851Z,489.38
2022-11-15T11:45:30.495Z,562.5
2022-11-15T11:46:31.437Z,697.5
2022-11-15T11:47:32.503Z,855
2022-11-15T11:48:33.927Z,798.75
2022-11-15T11:49:33.724Z,630
2022-11-15T11:50:34.661Z,365.63
2022-11-15T11:51:35.866Z,725.63
2022-11-15T11:52:36.658Z,1046.25
2022-11-15T11:53:37.182Z,900
2022-11-15T11:54:37.396Z,731.25
2022-11-15T11:55:38.409Z,675
2022-11-15T11:56:38.028Z,663.75
2022-11-15T11:57:38.964Z,708.75
2022-11-15T11:58:41.114Z,680.63
2022-11-15T11:59:41.341Z,545.63
2022-11-15T12:00:41.850Z,388.13
2022-11-15T12:01:42.367Z,348.75
2022-11-15T12:02:43.651Z,416.25
2022-11-15T12:03:43.939Z,562.5
2022-11-15T12:04:44.440Z,607.5
2022-11-15T12:05:44.347Z,568.13
2022-11-15T12:06:45.269Z,495
2022-11-15T12:07:46.504Z,438.75
2022-11-15T12:08:48.072Z,410.63
2022-11-15T12:09:48.579Z,444.38
2022-11-15T12:10:48.542Z,523.13
2022-11-15T12:11:49.770Z,601.88
2022-11-15T12:12:49.387Z,556.88
2022-11-15T12:13:50.015Z,500.63
2022-11-15T12:14:50.963Z,523.13
2022-11-15T12:15:51.051Z,528.75
2022-11-15T12:16:52.280Z,495
2022-11-15T12:17:52.793Z,551.25
2022-11-15T12:18:53.180Z,511.88
2022-11-15T12:19:53.823Z,416.25
2022-11-15T12:20:55.051Z,331.88
2022-11-15T12:21:55.555Z,292.5
2022-11-15T12:22:55.483Z,309.38
2022-11-15T12:23:56.815Z,343.13
2022-11-15T12:24:56.716Z,365.63
2022-11-15T12:25:58.129Z,315
2022-11-15T12:26:58.350Z,343.13
2022-11-15T12:27:58.291Z,489.38
2022-11-15T12:29:22.741Z,646.88
2022-11-15T12:30:00.262Z,658.13
2022-11-15T12:31:00.218Z,472.5
2022-11-15T12:32:00.557Z,371.25
2022-11-15T12:33:01.823Z,365.63
2022-11-15T12:34:07.035Z,337.5
2022-11-15T12:35:02.146Z,298.13
2022-11-15T12:36:03.407Z,270
2022-11-15T12:37:03.765Z,258.75
2022-11-15T12:38:04.422Z,225
2022-11-15T12:39:04.782Z,225
2022-11-15T12:40:09.219Z,225
2022-11-15T12:41:05.155Z,191.25
2022-11-15T12:42:06.657Z,202.5
2022-11-15T12:43:06.587Z,236.25
2022-11-15T12:44:07.826Z,236.25
2022-11-15T12:45:08.779Z,225
2022-11-15T12:46:08.709Z,230.63
2022-11-15T12:47:09.369Z,247.5
2022-11-15T12:48:10.410Z,236.25
2022-11-15T12:49:11.201Z,247.5
2022-11-15T12:50:11.542Z,253.13
2022-11-15T12:51:11.830Z,253.13
2022-11-15T12:52:12.228Z,286.88
2022-11-15T12:53:13.454Z,281.25
2022-11-15T12:54:13.105Z,241.88
2022-11-15T12:55:14.312Z,258.75
2022-11-15T12:56:15.264Z,270
2022-11-15T12:57:15.897Z,241.88
2022-11-15T12:58:17.126Z,236.25
2022-11-15T12:59:17.886Z,253.13
2022-11-15T13:00:22.792Z,236.25
2022-11-15T13:01:19.076Z,247.5
2022-11-15T13:02:19.709Z,281.25
2022-11-15T13:03:20.961Z,292.5
2022-11-15T13:04:21.215Z,286.88
2022-11-15T13:05:21.423Z,292.5
2022-11-15T13:06:20.761Z,292.5
2022-11-15T13:07:22.068Z,281.25
2022-11-15T13:08:22.024Z,286.88
2022-11-15T13:09:23.094Z,270
2022-11-15T13:10:27.715Z,281.25
2022-11-15T13:11:24.243Z,286.88
2022-11-15T13:12:24.175Z,292.5
2022-11-15T13:13:24.124Z,286.88
2022-11-15T13:14:25.075Z,281.25
2022-11-15T13:15:25.387Z,275.63
2022-11-15T13:16:25.298Z,270
2022-11-15T13:17:25.950Z,270
2022-11-15T13:18:26.625Z,270
2022-11-15T13:19:27.707Z,258.75
2022-11-15T13:20:28.349Z,247.5
2022-11-15T13:21:29.582Z,247.5
2022-11-15T13:22:30.505Z,241.88
2022-11-15T13:23:30.710Z,241.88
2022-11-15T13:24:31.410Z,241.88
2022-11-15T13:25:32.627Z,236.25
2022-11-15T13:26:32.871Z,236.25
2022-11-15T13:27:32.805Z,236.25
2022-11-15T13:28:34.068Z,208.13
2022-11-15T13:29:34.504Z,202.5
2022-11-15T13:30:34.723Z,225
2022-11-15T13:31:34.954Z,230.63
2022-11-15T13:32:35.585Z,230.63
2022-11-15T13:33:41.326Z,225
2022-11-15T13:35:04.145Z,202.5
2022-11-15T13:35:38.111Z,191.25
2022-11-15T13:36:37.769Z,202.5
2022-11-15T13:37:38.805Z,202.5
2022-11-15T13:38:39.461Z,196.88
2022-11-15T13:39:39.807Z,191.25
2022-11-15T13:40:39.725Z,196.88
2022-11-15T13:41:40.697Z,191.25
2022-11-15T13:42:45.576Z,213.75
2022-11-15T13:43:41.689Z,196.88
2022-11-15T13:44:42.640Z,180
2022-11-15T13:45:43.909Z,185.63
2022-11-15T13:46:43.662Z,163.13
2022-11-15T13:47:45.158Z,157.5
2022-11-15T13:48:46.432Z,174.38